Flinter Rose — PBUB — position and weather

sailwx.info

Track history (hours):
 
Tides and Currents Weather Stations Pressure Air Temp Water Temp Dewpoint Dewpoint Depression Visibility Wind Speed Wind Dir Waves Ship Positions

Flinter Rose

Last reported at 2017-Jun-22 13:30 UTC. Time now 2017-Jun-22 14:20 UTC.
Position N 59°42' E 019°56'.

Length 101 m; draft 4.1 m.

Type: Cargo ship. MMSI: 246227000.

Date/timePositionNaut miles runAvg speedWind from/ knotsBaromVisibWave heightAir tempDewpointWater temp
2017-Jun-22 13:30N 59°42' E 019°56'611.2
2017-Jun-22 13:00N 59°38' E 020°04'611.1
2017-Jun-22 12:30N 59°34' E 020°11'611.2
2017-Jun-22 12:00N 59°29' E 020°11'611.5
2017-Jun-22 11:30N 59°24' E 020°04'611.6
2017-Jun-22 11:00N 59°19' E 019°58'611.6
2017-Jun-22 10:30N 59°14' E 019°52'21411.4
2017-Jun-21 15:50N 56°04' E 016°50'411.7
2017-Jun-21 15:31N 56°02' E 016°44'611.5
2017-Jun-21 15:01N 55°60' E 016°35'611.5
2017-Jun-21 14:31N 55°57' E 016°26'1211.6
2017-Jun-21 13:31N 55°51' E 016°08'611.7
2017-Jun-21 13:01N 55°48' E 015°58'611.7
2017-Jun-21 12:31N 55°46' E 015°49'611.8
2017-Jun-21 12:01N 55°43' E 015°40'611.9
2017-Jun-21 11:31N 55°40' E 015°31'611.7
2017-Jun-21 11:01N 55°37' E 015°22'611.8
2017-Jun-21 10:30N 55°34' E 015°13'711.7
2017-Jun-21 09:56N 55°31' E 015°02'611.5
2017-Jun-21 09:25N 55°28' E 014°53'511.6
2017-Jun-21 09:00N 55°26' E 014°46'611.4
2017-Jun-21 08:29N 55°22' E 014°37'611.6
2017-Jun-21 08:00N 55°18' E 014°31'611.5
2017-Jun-21 07:30N 55°14' E 014°25'611.5
2017-Jun-21 07:00N 55°09' E 014°19'611.6
2017-Jun-21 06:30N 55°04' E 014°12'611.0
2017-Jun-21 06:00N 55°01' E 014°05'611.6
2017-Jun-21 05:30N 54°59' E 013°55'4511.3
2017-Jun-21 01:32N 54°44' E 012°42'011.5
2017-Jun-21 01:30N 54°44' E 012°42'611.5
2017-Jun-21 01:00N 54°41' E 012°33'1610.9
2017-Jun-20 23:32N 54°29' E 012°15'011.7
2017-Jun-20 23:30N 54°28' E 012°15'510.8
2017-Jun-20 23:00N 54°25' E 012°08'3911.7
2017-Jun-20 19:42N 54°35' E 011°04'212.3
2017-Jun-20 19:30N 54°35' E 010°60'3110.5
2017-Jun-20 16:31N 54°22' E 010°10'011.3
2017-Jun-20 16:29N 54°22' E 010°10'36 5.0
2017-Jun-20 09:15N 54°02' E 009°18'2 8.6
2017-Jun-20 09:01N 54°00' E 009°18'4 7.8
2017-Jun-20 08:29N 53°57' E 009°14'0 0.5
2017-Jun-20 08:00N 53°56' E 009°13'3 5.1
2017-Jun-20 07:30N 53°55' E 009°11'1 2.8
2017-Jun-20 07:00N 53°54' E 009°09'1 1.1
2017-Jun-20 06:30N 53°53' E 009°08'2 3.2
2017-Jun-20 06:00N 53°53' E 009°05'612.6
2017-Jun-20 05:30N 53°51' E 008°56'30 7.4
2017-Jun-20 01:26N 53°50' E 008°04'511.9
2017-Jun-20 00:59N 53°46' E 008°11'612.6
2017-Jun-20 00:30N 53°43' E 008°19'713.5
2017-Jun-20 00:00N 53°38' E 008°27'714.0
2017-Jun-19 23:30N 53°32' E 008°34'611.1
2017-Jun-19 23:00N 53°28' E 008°30'712.9
2017-Jun-19 22:28N 53°21' E 008°30'511.8
2017-Jun-19 22:00N 53°15' E 008°29'510.2
2017-Jun-19 21:30N 53°11' E 008°34'5 9.4
2017-Jun-19 21:01N 53°07' E 008°39'0 0.0
2017-Jun-19 20:30N 53°07' E 008°39'0 0.0
2017-Jun-19 20:01N 53°07' E 008°39'0 0.0
2017-Jun-19 19:31N 53°07' E 008°39'0 0.0
2017-Jun-19 19:01N 53°07' E 008°39'0 0.0
2017-Jun-19 18:31N 53°07' E 008°39'0 0.0
2017-Jun-19 18:00N 53°07' E 008°39'0 0.0
2017-Jun-19 17:31N 53°07' E 008°39'0 0.0
2017-Jun-19 17:00N 53°07' E 008°39'0 0.0
2017-Jun-19 16:30N 53°07' E 008°39'0 0.0
2017-Jun-19 16:00N 53°07' E 008°39'0 0.0
2017-Jun-19 15:30N 53°07' E 008°39'0 0.0
2017-Jun-19 15:00N 53°07' E 008°39'0 0.0
2017-Jun-19 14:31N 53°07' E 008°39'0 0.0
2017-Jun-19 13:31N 53°07' E 008°39'0 0.0
2017-Jun-19 13:00N 53°07' E 008°39'0 0.0
2017-Jun-19 12:31N 53°07' E 008°39'0 0.0
2017-Jun-19 12:00N 53°07' E 008°39'0 0.0
2017-Jun-19 11:30N 53°07' E 008°39'0 0.0
2017-Jun-19 11:00N 53°07' E 008°39'0 0.0
2017-Jun-19 10:31N 53°07' E 008°39'0 0.0
2017-Jun-19 10:00N 53°07' E 008°39'0 0.0
2017-Jun-19 09:30N 53°07' E 008°39'0 0.0
2017-Jun-19 09:00N 53°07' E 008°39'0 0.0
2017-Jun-19 08:31N 53°07' E 008°39'0 0.0
2017-Jun-19 08:01N 53°07' E 008°39'0 0.0
2017-Jun-19 07:30N 53°07' E 008°39'0 0.0
2017-Jun-19 07:01N 53°07' E 008°39'0 0.0
2017-Jun-19 06:31N 53°07' E 008°39'0 0.0
2017-Jun-19 06:01N 53°07' E 008°39'0 0.0
2017-Jun-19 05:31N 53°07' E 008°39'0 0.0
2017-Jun-19 05:00N 53°07' E 008°39'0 0.0
2017-Jun-19 04:30N 53°07' E 008°39'0 0.0
2017-Jun-19 04:00N 53°07' E 008°39'0 0.0
2017-Jun-19 03:30N 53°07' E 008°39'0 0.0
2017-Jun-19 03:01N 53°07' E 008°39'0 0.0
2017-Jun-19 02:30N 53°07' E 008°39'0 0.0
2017-Jun-19 02:01N 53°07' E 008°39'0 0.0
2017-Jun-19 01:30N 53°07' E 008°39'0 0.0
2017-Jun-19 01:01N 53°07' E 008°39'0 0.0
2017-Jun-19 00:30N 53°07' E 008°39'0 0.0
2017-Jun-19 00:01N 53°07' E 008°39'0 0.0
2017-Jun-18 23:31N 53°07' E 008°39'0 0.0
2017-Jun-18 23:01N 53°07' E 008°39'0 0.0
2017-Jun-18 22:30N 53°07' E 008°39'0 0.0
2017-Jun-18 22:01N 53°07' E 008°39'0 0.0
2017-Jun-18 21:31N 53°07' E 008°39'0 0.0
2017-Jun-18 21:01N 53°07' E 008°39'0 0.0
2017-Jun-18 20:31N 53°07' E 008°39'0 0.0
2017-Jun-18 20:01N 53°07' E 008°39'0 0.0
2017-Jun-18 19:31N 53°07' E 008°39'2 3.3
2017-Jun-18 19:01N 53°09' E 008°38'3 6.6
2017-Jun-18 18:31N 53°11' E 008°33'510.1
2017-Jun-18 18:00N 53°15' E 008°29'611.3
2017-Jun-18 17:30N 53°21' E 008°30'612.1
2017-Jun-18 17:00N 53°27' E 008°29'5 9.7
2017-Jun-18 16:30N 53°31' E 008°33'5 9.1
2017-Jun-18 16:00N 53°36' E 008°31'612.4
2017-Jun-18 15:30N 53°40' E 008°23'714.3
2017-Jun-18 15:00N 53°44' E 008°14'1413.5
2017-Jun-18 13:59N 53°52' E 007°54'5 9.3
2017-Jun-18 13:30N 53°54' E 007°47'1 1.3
2017-Jun-18 12:55N 53°54' E 007°47'0 0.0
2017-Jun-18 12:10N 53°54' E 007°47'0 0.0
2017-Jun-18 08:36N 53°54' E 007°47'0 0.0
2017-Jun-18 08:27N 53°54' E 007°47'0 0.0
2017-Jun-18 07:57N 53°54' E 007°47'0 0.0
2017-Jun-18 07:30N 53°54' E 007°47'134 5.7
2017-Jun-17 08:05N 52°60' E 004°22'112.7
2017-Jun-17 07:59N 52°58' E 004°21'712.8
2017-Jun-17 07:25N 52°52' E 004°15'512.4
2017-Jun-17 07:00N 52°48' E 004°10'612.4
2017-Jun-17 06:31N 52°43' E 004°04'612.2
2017-Jun-17 06:01N 52°39' E 003°57'2411.3
2017-Jun-17 03:55N 52°20' E 003°33'510.9
2017-Jun-17 03:29N 52°15' E 003°32'713.5
2017-Jun-17 03:00N 52°09' E 003°29'4 8.1
2017-Jun-17 02:30N 52°06' E 003°26'510.7
2017-Jun-17 02:00N 52°00' E 003°24'5 9.9
2017-Jun-17 01:30N 51°55' E 003°23'510.6
2017-Jun-17 01:00N 51°50' E 003°20'510.2
2017-Jun-17 00:30N 51°46' E 003°16'5 9.2
2017-Jun-17 00:00N 51°41' E 003°18'611.6
2017-Jun-16 23:29N 51°36' E 003°23'612.0
2017-Jun-16 23:00N 51°31' E 003°26'612.3
2017-Jun-16 22:30N 51°27' E 003°34'613.0
2017-Jun-16 22:00N 51°23' E 003°42'713.5
2017-Jun-16 21:30N 51°21' E 003°53'713.3
2017-Jun-16 21:00N 51°26' E 003°59'612.7
2017-Jun-16 20:30N 51°22' E 004°07'4 8.4
2017-Jun-16 20:00N 51°22' E 004°14'2 4.4
2017-Jun-16 19:30N 51°21' E 004°17'1 1.8
2017-Jun-16 19:00N 51°20' E 004°18'4 7.9
2017-Jun-16 18:30N 51°17' E 004°21'2 4.3
2017-Jun-16 17:59N 51°15' E 004°23'0 0.0
2017-Jun-16 17:29N 51°15' E 004°23'0 0.0
2017-Jun-16 16:59N 51°15' E 004°23'0 0.0
2017-Jun-16 16:29N 51°15' E 004°23'0 0.0
2017-Jun-16 15:59N 51°15' E 004°23'0 0.0
2017-Jun-16 15:29N 51°15' E 004°23'0 0.0
2017-Jun-16 14:59N 51°15' E 004°23'0 0.0
2017-Jun-16 14:29N 51°15' E 004°23'0 0.0
2017-Jun-16 13:29N 51°15' E 004°23'0 0.0
2017-Jun-16 12:59N 51°15' E 004°23'0 0.0
2017-Jun-16 12:29N 51°15' E 004°23'0 0.0
2017-Jun-16 11:59N 51°15' E 004°23'0 0.0
2017-Jun-16 11:29N 51°15' E 004°23'0 0.0
2017-Jun-16 10:59N 51°15' E 004°23'0 0.0
2017-Jun-16 10:29N 51°15' E 004°23'0 0.0
2017-Jun-16 10:00N 51°15' E 004°23'0 0.0
2017-Jun-16 09:28N 51°15' E 004°23'0 0.0
2017-Jun-16 08:58N 51°15' E 004°23'0 0.0
2017-Jun-16 08:28N 51°15' E 004°23'0 0.0
2017-Jun-16 07:58N 51°15' E 004°23'0 0.0
2017-Jun-16 07:28N 51°15' E 004°23'0 0.0
2017-Jun-16 06:58N 51°15' E 004°23'0 0.0
2017-Jun-16 06:28N 51°15' E 004°23'0 0.0
2017-Jun-16 05:58N 51°15' E 004°23'0 0.0
2017-Jun-16 05:28N 51°15' E 004°23'0 0.0
2017-Jun-16 04:58N 51°15' E 004°23'0 0.0
2017-Jun-16 04:25N 51°15' E 004°23'0 0.0
2017-Jun-16 03:58N 51°15' E 004°23'0 0.0
2017-Jun-16 03:28N 51°15' E 004°23'0 0.0
2017-Jun-16 02:58N 51°15' E 004°23'0 0.0
2017-Jun-16 02:30N 51°15' E 004°23'1 2.1
2017-Jun-16 02:00N 51°15' E 004°21'2 3.1
2017-Jun-16 01:30N 51°17' E 004°20'0 0.0
2017-Jun-16 01:01N 51°17' E 004°20'1 2.5
2017-Jun-16 00:31N 51°18' E 004°19'1 2.1
2017-Jun-16 00:00N 51°18' E 004°17'5 9.0
2017-Jun-15 23:30N 51°22' E 004°13'3 5.9
2017-Jun-15 23:00N 51°22' E 004°09'4 8.4
2017-Jun-15 22:31N 51°23' E 004°02'3 6.3
2017-Jun-15 22:00N 51°25' E 003°58'5 9.0
2017-Jun-15 21:30N 51°22' E 003°54'4 8.4
2017-Jun-15 21:00N 51°21' E 003°48'4 8.9
2017-Jun-15 20:30N 51°24' E 003°42'4 8.8
2017-Jun-15 20:01N 51°25' E 003°35'4 8.7
2017-Jun-15 19:30N 51°25' E 003°28'611.2
2017-Jun-15 19:00N 51°24' E 003°19'612.3
2017-Jun-15 18:30N 51°23' E 003°10'612.8
2017-Jun-15 18:01N 51°22' E 002°60'612.9
2017-Jun-15 17:30N 51°22' E 002°49'5 9.9
2017-Jun-15 17:00N 51°22' E 002°42'510.1
2017-Jun-15 16:30N 51°22' E 002°33'713.2
2017-Jun-15 16:00N 51°20' E 002°23'713.5
2017-Jun-15 15:30N 51°17' E 002°14'713.4
2017-Jun-15 15:00N 51°13' E 002°05'1313.1
2017-Jun-15 14:00N 51°06' E 001°47'612.9
2017-Jun-15 13:30N 51°02' E 001°40'612.3
2017-Jun-15 13:00N 50°57' E 001°33'611.4
2017-Jun-15 12:30N 50°52' E 001°28'611.0
2017-Jun-15 12:00N 50°47' E 001°25'510.6
2017-Jun-15 11:30N 50°43' E 001°21'611.1
2017-Jun-15 10:58N 50°39' E 001°14'611.2
2017-Jun-15 10:24N 50°35' E 001°06'2611.0
2017-Jun-15 08:01N 50°26' E 000°27'210.9
2017-Jun-15 07:52N 50°25' E 000°25'410.8
2017-Jun-15 07:30N 50°24' E 000°19'510.7
2017-Jun-15 07:00N 50°23' E 000°11'510.6
2017-Jun-15 06:30N 50°21' E 000°03'510.6
2017-Jun-15 06:00N 50°20' W 000°05'510.5
2017-Jun-15 05:30N 50°18' W 000°13'510.3
2017-Jun-15 05:00N 50°17' W 000°21'510.2
2017-Jun-15 04:30N 50°16' W 000°29'510.3
2017-Jun-15 04:00N 50°14' W 000°36'510.5
2017-Jun-15 03:30N 50°13' W 000°44'510.9
2017-Jun-15 03:00N 50°12' W 000°53'611.5
2017-Jun-15 02:29N 50°10' W 001°01'1312.5
2017-Jun-15 01:27N 50°07' W 001°21'613.4
2017-Jun-15 01:00N 50°05' W 001°30'713.8
2017-Jun-15 00:31N 50°03' W 001°40'714.3
2017-Jun-15 00:01N 50°01' W 001°51'714.5
2017-Jun-14 23:30N 49°59' W 002°02'714.7
2017-Jun-14 23:00N 49°58' W 002°13'814.4
2017-Jun-14 22:28N 49°56' W 002°25'713.9
2017-Jun-14 21:56N 49°54' W 002°36'613.6
2017-Jun-14 21:28N 49°52' W 002°45'613.1
2017-Jun-14 21:00N 49°51' W 002°55'712.7
2017-Jun-14 20:28N 49°51' W 003°05'612.5
2017-Jun-14 20:01N 49°51' W 003°14'612.3
2017-Jun-14 19:30N 49°51' W 003°24'612.0
2017-Jun-14 19:00N 49°51' W 003°33'611.9
2017-Jun-14 18:31N 49°51' W 003°42'611.8
2017-Jun-14 18:01N 49°51' W 003°51'611.7
2017-Jun-14 17:31N 49°51' W 004°00'1111.5
2017-Jun-14 16:31N 49°51' W 004°18'111.5
2017-Jun-14 16:25N 49°51' W 004°20'511.5
2017-Jun-14 16:00N 49°51' W 004°27'611.5
2017-Jun-14 15:29N 49°51' W 004°36'611.3
2017-Jun-14 14:59N 49°51' W 004°45'1111.1
2017-Jun-14 14:00N 49°51' W 005°02'610.9
2017-Jun-14 13:26N 49°51' W 005°12'510.9
2017-Jun-14 12:57N 49°51' W 005°20'911.1
2017-Jun-14 12:06N 49°51' W 005°34'411.2
2017-Jun-14 11:43N 49°51' W 005°41'311.5
2017-Jun-14 11:28N 49°52' W 005°45'711.8
2017-Jun-14 10:55N 49°54' W 005°55'1010.7
2017-Jun-14 09:58N 50°03' W 006°01'612.6
2017-Jun-14 09:30N 50°09' W 006°01'1211.8
2017-Jun-14 08:31N 50°21' W 006°01'011.4
2017-Jun-14 08:30N 50°21' W 006°00'510.7
2017-Jun-14 08:00N 50°24' W 005°54'510.4
2017-Jun-14 07:30N 50°28' W 005°48'510.3
2017-Jun-14 07:00N 50°31' W 005°42'510.4
2017-Jun-14 06:30N 50°35' W 005°36'510.4
2017-Jun-14 06:01N 50°38' W 005°29'510.5
2017-Jun-14 05:30N 50°41' W 005°23'510.7
2017-Jun-14 05:01N 50°45' W 005°17'510.9
2017-Jun-14 04:30N 50°48' W 005°10'611.1
2017-Jun-14 04:00N 50°52' W 005°03'611.5
2017-Jun-14 03:31N 50°56' W 004°56'611.7
2017-Jun-14 03:01N 50°59' W 004°49'612.0
2017-Jun-14 02:30N 51°03' W 004°42'612.4
2017-Jun-14 02:00N 51°07' W 004°35'612.7
2017-Jun-14 01:31N 51°11' W 004°27'713.6
2017-Jun-14 00:59N 51°16' W 004°18'713.6
2017-Jun-14 00:30N 51°18' W 004°08'3014.8
2017-Jun-13 22:28N 51°21' W 003°20'712.3
2017-Jun-13 21:53N 51°24' W 003°10'512.1
2017-Jun-13 21:30N 51°28' W 003°06'510.9
2017-Jun-13 21:00N 51°31' W 002°59'3 0.4
2017-Jun-13 14:16N 51°34' W 002°58'0 0.0
2017-Jun-13 07:25N 51°34' W 002°58'0 0.0
2017-Jun-13 06:52N 51°34' W 002°58'0 0.0
2017-Jun-13 06:22N 51°34' W 002°58'0 0.0
2017-Jun-13 05:58N 51°34' W 002°58'0 0.0
2017-Jun-13 04:16N 51°34' W 002°58'0 0.0
2017-Jun-13 03:55N 51°34' W 002°58'0 0.0
2017-Jun-13 03:28N 51°34' W 002°58'0 0.0
2017-Jun-13 02:58N 51°34' W 002°58'0 0.0
2017-Jun-13 02:28N 51°34' W 002°58'0 0.0
2017-Jun-13 01:55N 51°34' W 002°58'0 0.0
2017-Jun-13 01:28N 51°34' W 002°58'0 0.0
2017-Jun-13 00:58N 51°34' W 002°58'0 0.0
2017-Jun-13 00:25N 51°34' W 002°58'0 0.0
2017-Jun-12 23:58N 51°34' W 002°58'0 0.0
2017-Jun-12 23:16N 51°34' W 002°58'0 0.0
2017-Jun-12 22:46N 51°34' W 002°58'0 0.0
2017-Jun-12 22:16N 51°34' W 002°58'0 0.0
2017-Jun-12 21:43N 51°34' W 002°58'0 0.0
2017-Jun-12 21:28N 51°34' W 002°58'0 0.0
2017-Jun-12 20:58N 51°34' W 002°58'1 1.0
2017-Jun-12 20:26N 51°33' W 002°58'1 2.3
2017-Jun-12 20:00N 51°32' W 002°59'4 8.1
2017-Jun-12 19:31N 51°29' W 003°01'1512.0
2017-Jun-12 18:16N 51°19' W 003°19'  
Track history (hours):
 
Tides and Currents Weather Stations Pressure Air Temp Water Temp Dewpoint Dewpoint Depression Visibility Wind Speed Wind Dir Waves Ship Positions

Flinter Rose

Last reported at 2017-Jun-22 13:30 UTC. Time now 2017-Jun-22 14:20 UTC.
Position N 59°42' E 019°56'.

Length 101 m; draft 4.1 m.

Type: Cargo ship. MMSI: 246227000.

Date/timePositionNaut miles runAvg speedWind from/ knotsBaromVisibWave heightAir tempDewpointWater temp
2017-Jun-22 13:30N 59°42' E 019°56'611.2
2017-Jun-22 13:00N 59°38' E 020°04'611.1
2017-Jun-22 12:30N 59°34' E 020°11'611.2
2017-Jun-22 12:00N 59°29' E 020°11'611.5
2017-Jun-22 11:30N 59°24' E 020°04'611.6
2017-Jun-22 11:00N 59°19' E 019°58'611.6
2017-Jun-22 10:30N 59°14' E 019°52'21411.4
2017-Jun-21 15:50N 56°04' E 016°50'411.7
2017-Jun-21 15:31N 56°02' E 016°44'611.5
2017-Jun-21 15:01N 55°60' E 016°35'611.5
2017-Jun-21 14:31N 55°57' E 016°26'1211.6
2017-Jun-21 13:31N 55°51' E 016°08'611.7
2017-Jun-21 13:01N 55°48' E 015°58'611.7
2017-Jun-21 12:31N 55°46' E 015°49'611.8
2017-Jun-21 12:01N 55°43' E 015°40'611.9
2017-Jun-21 11:31N 55°40' E 015°31'611.7
2017-Jun-21 11:01N 55°37' E 015°22'611.8
2017-Jun-21 10:30N 55°34' E 015°13'711.7
2017-Jun-21 09:56N 55°31' E 015°02'611.5
2017-Jun-21 09:25N 55°28' E 014°53'511.6
2017-Jun-21 09:00N 55°26' E 014°46'611.4
2017-Jun-21 08:29N 55°22' E 014°37'611.6
2017-Jun-21 08:00N 55°18' E 014°31'611.5
2017-Jun-21 07:30N 55°14' E 014°25'611.5
2017-Jun-21 07:00N 55°09' E 014°19'611.6
2017-Jun-21 06:30N 55°04' E 014°12'611.0
2017-Jun-21 06:00N 55°01' E 014°05'611.6
2017-Jun-21 05:30N 54°59' E 013°55'4511.3
2017-Jun-21 01:32N 54°44' E 012°42'011.5
2017-Jun-21 01:30N 54°44' E 012°42'611.5
2017-Jun-21 01:00N 54°41' E 012°33'1610.9
2017-Jun-20 23:32N 54°29' E 012°15'011.7
2017-Jun-20 23:30N 54°28' E 012°15'510.8
2017-Jun-20 23:00N 54°25' E 012°08'3911.7
2017-Jun-20 19:42N 54°35' E 011°04'212.3
2017-Jun-20 19:30N 54°35' E 010°60'3110.5
2017-Jun-20 16:31N 54°22' E 010°10'011.3
2017-Jun-20 16:29N 54°22' E 010°10'36 5.0
2017-Jun-20 09:15N 54°02' E 009°18'2 8.6
2017-Jun-20 09:01N 54°00' E 009°18'4 7.8
2017-Jun-20 08:29N 53°57' E 009°14'0 0.5
2017-Jun-20 08:00N 53°56' E 009°13'3 5.1
2017-Jun-20 07:30N 53°55' E 009°11'1 2.8
2017-Jun-20 07:00N 53°54' E 009°09'1 1.1
2017-Jun-20 06:30N 53°53' E 009°08'2 3.2
2017-Jun-20 06:00N 53°53' E 009°05'612.6
2017-Jun-20 05:30N 53°51' E 008°56'30 7.4
2017-Jun-20 01:26N 53°50' E 008°04'511.9
2017-Jun-20 00:59N 53°46' E 008°11'612.6
2017-Jun-20 00:30N 53°43' E 008°19'713.5
2017-Jun-20 00:00N 53°38' E 008°27'714.0
2017-Jun-19 23:30N 53°32' E 008°34'611.1
2017-Jun-19 23:00N 53°28' E 008°30'712.9
2017-Jun-19 22:28N 53°21' E 008°30'511.8
2017-Jun-19 22:00N 53°15' E 008°29'510.2
2017-Jun-19 21:30N 53°11' E 008°34'5 9.4
2017-Jun-19 21:01N 53°07' E 008°39'0 0.0
2017-Jun-19 20:30N 53°07' E 008°39'0 0.0
2017-Jun-19 20:01N 53°07' E 008°39'0 0.0
2017-Jun-19 19:31N 53°07' E 008°39'0 0.0
2017-Jun-19 19:01N 53°07' E 008°39'0 0.0
2017-Jun-19 18:31N 53°07' E 008°39'0 0.0
2017-Jun-19 18:00N 53°07' E 008°39'0 0.0
2017-Jun-19 17:31N 53°07' E 008°39'0 0.0
2017-Jun-19 17:00N 53°07' E 008°39'0 0.0
2017-Jun-19 16:30N 53°07' E 008°39'0 0.0
2017-Jun-19 16:00N 53°07' E 008°39'0 0.0
2017-Jun-19 15:30N 53°07' E 008°39'0 0.0
2017-Jun-19 15:00N 53°07' E 008°39'0 0.0
2017-Jun-19 14:31N 53°07' E 008°39'0 0.0
2017-Jun-19 13:31N 53°07' E 008°39'0 0.0
2017-Jun-19 13:00N 53°07' E 008°39'0 0.0
2017-Jun-19 12:31N 53°07' E 008°39'0 0.0
2017-Jun-19 12:00N 53°07' E 008°39'0 0.0
2017-Jun-19 11:30N 53°07' E 008°39'0 0.0
2017-Jun-19 11:00N 53°07' E 008°39'0 0.0
2017-Jun-19 10:31N 53°07' E 008°39'0 0.0
2017-Jun-19 10:00N 53°07' E 008°39'0 0.0
2017-Jun-19 09:30N 53°07' E 008°39'0 0.0
2017-Jun-19 09:00N 53°07' E 008°39'0 0.0
2017-Jun-19 08:31N 53°07' E 008°39'0 0.0
2017-Jun-19 08:01N 53°07' E 008°39'0 0.0
2017-Jun-19 07:30N 53°07' E 008°39'0 0.0
2017-Jun-19 07:01N 53°07' E 008°39'0 0.0
2017-Jun-19 06:31N 53°07' E 008°39'0 0.0
2017-Jun-19 06:01N 53°07' E 008°39'0 0.0
2017-Jun-19 05:31N 53°07' E 008°39'0 0.0
2017-Jun-19 05:00N 53°07' E 008°39'0 0.0
2017-Jun-19 04:30N 53°07' E 008°39'0 0.0
2017-Jun-19 04:00N 53°07' E 008°39'0 0.0
2017-Jun-19 03:30N 53°07' E 008°39'0 0.0
2017-Jun-19 03:01N 53°07' E 008°39'0 0.0
2017-Jun-19 02:30N 53°07' E 008°39'0 0.0
2017-Jun-19 02:01N 53°07' E 008°39'0 0.0
2017-Jun-19 01:30N 53°07' E 008°39'0 0.0
2017-Jun-19 01:01N 53°07' E 008°39'0 0.0
2017-Jun-19 00:30N 53°07' E 008°39'0 0.0
2017-Jun-19 00:01N 53°07' E 008°39'0 0.0
2017-Jun-18 23:31N 53°07' E 008°39'0 0.0
2017-Jun-18 23:01N 53°07' E 008°39'0 0.0
2017-Jun-18 22:30N 53°07' E 008°39'0 0.0
2017-Jun-18 22:01N 53°07' E 008°39'0 0.0
2017-Jun-18 21:31N 53°07' E 008°39'0 0.0
2017-Jun-18 21:01N 53°07' E 008°39'0 0.0
2017-Jun-18 20:31N 53°07' E 008°39'0 0.0
2017-Jun-18 20:01N 53°07' E 008°39'0 0.0
2017-Jun-18 19:31N 53°07' E 008°39'2 3.3
2017-Jun-18 19:01N 53°09' E 008°38'3 6.6
2017-Jun-18 18:31N 53°11' E 008°33'510.1
2017-Jun-18 18:00N 53°15' E 008°29'611.3
2017-Jun-18 17:30N 53°21' E 008°30'612.1
2017-Jun-18 17:00N 53°27' E 008°29'5 9.7
2017-Jun-18 16:30N 53°31' E 008°33'5 9.1
2017-Jun-18 16:00N 53°36' E 008°31'612.4
2017-Jun-18 15:30N 53°40' E 008°23'714.3
2017-Jun-18 15:00N 53°44' E 008°14'1413.5
2017-Jun-18 13:59N 53°52' E 007°54'5 9.3
2017-Jun-18 13:30N 53°54' E 007°47'1 1.3
2017-Jun-18 12:55N 53°54' E 007°47'0 0.0
2017-Jun-18 12:10N 53°54' E 007°47'0 0.0
2017-Jun-18 08:36N 53°54' E 007°47'0 0.0
2017-Jun-18 08:27N 53°54' E 007°47'0 0.0
2017-Jun-18 07:57N 53°54' E 007°47'0 0.0
2017-Jun-18 07:30N 53°54' E 007°47'134 5.7
2017-Jun-17 08:05N 52°60' E 004°22'112.7
2017-Jun-17 07:59N 52°58' E 004°21'712.8
2017-Jun-17 07:25N 52°52' E 004°15'512.4
2017-Jun-17 07:00N 52°48' E 004°10'612.4
2017-Jun-17 06:31N 52°43' E 004°04'612.2
2017-Jun-17 06:01N 52°39' E 003°57'2411.3
2017-Jun-17 03:55N 52°20' E 003°33'510.9
2017-Jun-17 03:29N 52°15' E 003°32'713.5
2017-Jun-17 03:00N 52°09' E 003°29'4 8.1
2017-Jun-17 02:30N 52°06' E 003°26'510.7
2017-Jun-17 02:00N 52°00' E 003°24'5 9.9
2017-Jun-17 01:30N 51°55' E 003°23'510.6
2017-Jun-17 01:00N 51°50' E 003°20'510.2
2017-Jun-17 00:30N 51°46' E 003°16'5 9.2
2017-Jun-17 00:00N 51°41' E 003°18'611.6
2017-Jun-16 23:29N 51°36' E 003°23'612.0
2017-Jun-16 23:00N 51°31' E 003°26'612.3
2017-Jun-16 22:30N 51°27' E 003°34'613.0
2017-Jun-16 22:00N 51°23' E 003°42'713.5
2017-Jun-16 21:30N 51°21' E 003°53'713.3
2017-Jun-16 21:00N 51°26' E 003°59'612.7
2017-Jun-16 20:30N 51°22' E 004°07'4 8.4
2017-Jun-16 20:00N 51°22' E 004°14'2 4.4
2017-Jun-16 19:30N 51°21' E 004°17'1 1.8
2017-Jun-16 19:00N 51°20' E 004°18'4 7.9
2017-Jun-16 18:30N 51°17' E 004°21'2 4.3
2017-Jun-16 17:59N 51°15' E 004°23'0 0.0
2017-Jun-16 17:29N 51°15' E 004°23'0 0.0
2017-Jun-16 16:59N 51°15' E 004°23'0 0.0
2017-Jun-16 16:29N 51°15' E 004°23'0 0.0
2017-Jun-16 15:59N 51°15' E 004°23'0 0.0
2017-Jun-16 15:29N 51°15' E 004°23'0 0.0
2017-Jun-16 14:59N 51°15' E 004°23'0 0.0
2017-Jun-16 14:29N 51°15' E 004°23'0 0.0
2017-Jun-16 13:29N 51°15' E 004°23'0 0.0
2017-Jun-16 12:59N 51°15' E 004°23'0 0.0
2017-Jun-16 12:29N 51°15' E 004°23'0 0.0
2017-Jun-16 11:59N 51°15' E 004°23'0 0.0
2017-Jun-16 11:29N 51°15' E 004°23'0 0.0
2017-Jun-16 10:59N 51°15' E 004°23'0 0.0
2017-Jun-16 10:29N 51°15' E 004°23'0 0.0
2017-Jun-16 10:00N 51°15' E 004°23'0 0.0
2017-Jun-16 09:28N 51°15' E 004°23'0 0.0
2017-Jun-16 08:58N 51°15' E 004°23'0 0.0
2017-Jun-16 08:28N 51°15' E 004°23'0 0.0
2017-Jun-16 07:58N 51°15' E 004°23'0 0.0
2017-Jun-16 07:28N 51°15' E 004°23'0 0.0
2017-Jun-16 06:58N 51°15' E 004°23'0 0.0
2017-Jun-16 06:28N 51°15' E 004°23'0 0.0
2017-Jun-16 05:58N 51°15' E 004°23'0 0.0
2017-Jun-16 05:28N 51°15' E 004°23'0 0.0
2017-Jun-16 04:58N 51°15' E 004°23'0 0.0
2017-Jun-16 04:25N 51°15' E 004°23'0 0.0
2017-Jun-16 03:58N 51°15' E 004°23'0 0.0
2017-Jun-16 03:28N 51°15' E 004°23'0 0.0
2017-Jun-16 02:58N 51°15' E 004°23'0 0.0
2017-Jun-16 02:30N 51°15' E 004°23'1 2.1
2017-Jun-16 02:00N 51°15' E 004°21'2 3.1
2017-Jun-16 01:30N 51°17' E 004°20'0 0.0
2017-Jun-16 01:01N 51°17' E 004°20'1 2.5
2017-Jun-16 00:31N 51°18' E 004°19'1 2.1
2017-Jun-16 00:00N 51°18' E 004°17'5 9.0
2017-Jun-15 23:30N 51°22' E 004°13'3 5.9
2017-Jun-15 23:00N 51°22' E 004°09'4 8.4
2017-Jun-15 22:31N 51°23' E 004°02'3 6.3
2017-Jun-15 22:00N 51°25' E 003°58'5 9.0
2017-Jun-15 21:30N 51°22' E 003°54'4 8.4
2017-Jun-15 21:00N 51°21' E 003°48'4 8.9
2017-Jun-15 20:30N 51°24' E 003°42'4 8.8
2017-Jun-15 20:01N 51°25' E 003°35'4 8.7
2017-Jun-15 19:30N 51°25' E 003°28'611.2
2017-Jun-15 19:00N 51°24' E 003°19'612.3
2017-Jun-15 18:30N 51°23' E 003°10'612.8
2017-Jun-15 18:01N 51°22' E 002°60'612.9
2017-Jun-15 17:30N 51°22' E 002°49'5 9.9
2017-Jun-15 17:00N 51°22' E 002°42'510.1
2017-Jun-15 16:30N 51°22' E 002°33'713.2
2017-Jun-15 16:00N 51°20' E 002°23'713.5
2017-Jun-15 15:30N 51°17' E 002°14'713.4
2017-Jun-15 15:00N 51°13' E 002°05'1313.1
2017-Jun-15 14:00N 51°06' E 001°47'612.9
2017-Jun-15 13:30N 51°02' E 001°40'612.3
2017-Jun-15 13:00N 50°57' E 001°33'611.4
2017-Jun-15 12:30N 50°52' E 001°28'611.0
2017-Jun-15 12:00N 50°47' E 001°25'510.6
2017-Jun-15 11:30N 50°43' E 001°21'611.1
2017-Jun-15 10:58N 50°39' E 001°14'611.2
2017-Jun-15 10:24N 50°35' E 001°06'2611.0
2017-Jun-15 08:01N 50°26' E 000°27'210.9
2017-Jun-15 07:52N 50°25' E 000°25'410.8
2017-Jun-15 07:30N 50°24' E 000°19'510.7
2017-Jun-15 07:00N 50°23' E 000°11'510.6
2017-Jun-15 06:30N 50°21' E 000°03'510.6
2017-Jun-15 06:00N 50°20' W 000°05'510.5
2017-Jun-15 05:30N 50°18' W 000°13'510.3
2017-Jun-15 05:00N 50°17' W 000°21'510.2
2017-Jun-15 04:30N 50°16' W 000°29'510.3
2017-Jun-15 04:00N 50°14' W 000°36'510.5
2017-Jun-15 03:30N 50°13' W 000°44'510.9
2017-Jun-15 03:00N 50°12' W 000°53'611.5
2017-Jun-15 02:29N 50°10' W 001°01'1312.5
2017-Jun-15 01:27N 50°07' W 001°21'613.4
2017-Jun-15 01:00N 50°05' W 001°30'713.8
2017-Jun-15 00:31N 50°03' W 001°40'714.3
2017-Jun-15 00:01N 50°01' W 001°51'714.5
2017-Jun-14 23:30N 49°59' W 002°02'714.7
2017-Jun-14 23:00N 49°58' W 002°13'814.4
2017-Jun-14 22:28N 49°56' W 002°25'713.9
2017-Jun-14 21:56N 49°54' W 002°36'613.6
2017-Jun-14 21:28N 49°52' W 002°45'613.1
2017-Jun-14 21:00N 49°51' W 002°55'712.7
2017-Jun-14 20:28N 49°51' W 003°05'612.5
2017-Jun-14 20:01N 49°51' W 003°14'612.3
2017-Jun-14 19:30N 49°51' W 003°24'612.0
2017-Jun-14 19:00N 49°51' W 003°33'611.9
2017-Jun-14 18:31N 49°51' W 003°42'611.8
2017-Jun-14 18:01N 49°51' W 003°51'611.7
2017-Jun-14 17:31N 49°51' W 004°00'1111.5
2017-Jun-14 16:31N 49°51' W 004°18'111.5
2017-Jun-14 16:25N 49°51' W 004°20'511.5
2017-Jun-14 16:00N 49°51' W 004°27'611.5
2017-Jun-14 15:29N 49°51' W 004°36'611.3
2017-Jun-14 14:59N 49°51' W 004°45'1111.1
2017-Jun-14 14:00N 49°51' W 005°02'610.9
2017-Jun-14 13:26N 49°51' W 005°12'510.9
2017-Jun-14 12:57N 49°51' W 005°20'911.1
2017-Jun-14 12:06N 49°51' W 005°34'411.2
2017-Jun-14 11:43N 49°51' W 005°41'311.5
2017-Jun-14 11:28N 49°52' W 005°45'711.8
2017-Jun-14 10:55N 49°54' W 005°55'1010.7
2017-Jun-14 09:58N 50°03' W 006°01'612.6
2017-Jun-14 09:30N 50°09' W 006°01'1211.8
2017-Jun-14 08:31N 50°21' W 006°01'011.4
2017-Jun-14 08:30N 50°21' W 006°00'510.7
2017-Jun-14 08:00N 50°24' W 005°54'510.4
2017-Jun-14 07:30N 50°28' W 005°48'510.3
2017-Jun-14 07:00N 50°31' W 005°42'510.4
2017-Jun-14 06:30N 50°35' W 005°36'510.4
2017-Jun-14 06:01N 50°38' W 005°29'510.5
2017-Jun-14 05:30N 50°41' W 005°23'510.7
2017-Jun-14 05:01N 50°45' W 005°17'510.9
2017-Jun-14 04:30N 50°48' W 005°10'611.1
2017-Jun-14 04:00N 50°52' W 005°03'611.5
2017-Jun-14 03:31N 50°56' W 004°56'611.7
2017-Jun-14 03:01N 50°59' W 004°49'612.0
2017-Jun-14 02:30N 51°03' W 004°42'612.4
2017-Jun-14 02:00N 51°07' W 004°35'612.7
2017-Jun-14 01:31N 51°11' W 004°27'713.6
2017-Jun-14 00:59N 51°16' W 004°18'713.6
2017-Jun-14 00:30N 51°18' W 004°08'3014.8
2017-Jun-13 22:28N 51°21' W 003°20'712.3
2017-Jun-13 21:53N 51°24' W 003°10'512.1
2017-Jun-13 21:30N 51°28' W 003°06'510.9
2017-Jun-13 21:00N 51°31' W 002°59'3 0.4
2017-Jun-13 14:16N 51°34' W 002°58'0 0.0
2017-Jun-13 07:25N 51°34' W 002°58'0 0.0
2017-Jun-13 06:52N 51°34' W 002°58'0 0.0
2017-Jun-13 06:22N 51°34' W 002°58'0 0.0
2017-Jun-13 05:58N 51°34' W 002°58'0 0.0
2017-Jun-13 04:16N 51°34' W 002°58'0 0.0
2017-Jun-13 03:55N 51°34' W 002°58'0 0.0
2017-Jun-13 03:28N 51°34' W 002°58'0 0.0
2017-Jun-13 02:58N 51°34' W 002°58'0 0.0
2017-Jun-13 02:28N 51°34' W 002°58'0 0.0
2017-Jun-13 01:55N 51°34' W 002°58'0 0.0
2017-Jun-13 01:28N 51°34' W 002°58'0 0.0
2017-Jun-13 00:58N 51°34' W 002°58'0 0.0
2017-Jun-13 00:25N 51°34' W 002°58'0 0.0
2017-Jun-12 23:58N 51°34' W 002°58'0 0.0
2017-Jun-12 23:16N 51°34' W 002°58'0 0.0
2017-Jun-12 22:46N 51°34' W 002°58'0 0.0
2017-Jun-12 22:16N 51°34' W 002°58'0 0.0
2017-Jun-12 21:43N 51°34' W 002°58'0 0.0
2017-Jun-12 21:28N 51°34' W 002°58'0 0.0
2017-Jun-12 20:58N 51°34' W 002°58'1 1.0
2017-Jun-12 20:26N 51°33' W 002°58'1 2.3
2017-Jun-12 20:00N 51°32' W 002°59'4 8.1
2017-Jun-12 19:31N 51°29' W 003°01'1512.0
2017-Jun-12 18:16N 51°19' W 003°19'  

Dump ship's entire track history